Time;durP1;ratioP1;P1;durP2;ratioP2;P2;SDS_P1;SDS_P2;PMS_P1;PMS_P2;Temp;Humidity;BMP_temperature;BMP_pressure;BME280_temperature;BME280_humidity;BME280_pressure;Samples;Min_cycle;Max_cycle;Signal;HPM_P1;HPM_P2
2022/04/23 00:00:59;;;;;;;9.80;6.50;;;8.00;99.90;;;;;;10519372;28;20234;-78
2022/04/23 00:06:20;;;;;;;10.50;5.93;;;8.00;99.90;;;;;;10504708;28;20200;-79
2022/04/23 00:11:42;;;;;;;8.17;5.47;;;7.90;99.90;;;;;;10527856;28;20295;-79
2022/04/23 00:17:03;;;;;;;9.47;5.80;;;7.90;99.90;;;;;;10522858;28;20374;-78
2022/04/23 00:22:25;;;;;;;10.70;5.70;;;7.80;99.90;;;;;;10518134;28;20245;-79
2022/04/23 00:27:46;;;;;;;11.73;5.90;;;7.80;99.90;;;;;;10518464;28;20262;-79
2022/04/23 00:33:09;;;;;;;7.97;4.97;;;7.70;99.90;;;;;;10503063;28;20188;-78
2022/04/23 00:38:33;;;;;;;7.43;4.97;;;7.70;99.90;;;;;;10504251;28;20203;-78
2022/04/23 00:43:54;;;;;;;9.90;5.17;;;7.80;99.90;;;;;;10504114;28;20260;-78
2022/04/23 00:49:15;;;;;;;6.83;4.90;;;7.80;99.90;;;;;;10517980;28;20411;-78
2022/04/23 00:54:38;;;;;;;12.60;5.73;;;7.80;99.90;;;;;;10518292;28;20263;-78
2022/04/23 01:00:08;;;;;;;11.57;6.03;;;7.80;99.90;;;;;;10510481;28;20492;-79
2022/04/23 01:05:30;;;;;;;10.30;5.60;;;7.80;99.90;;;;;;10542775;28;20188;-79
2022/04/23 01:10:52;;;;;;;10.20;6.10;;;7.70;99.90;;;;;;10533001;28;20238;-78
2022/04/23 01:16:13;;;;;;;9.07;5.53;;;7.70;99.90;;;;;;10548553;28;20223;-79
2022/04/23 01:21:35;;;;;;;13.30;5.13;;;7.60;99.90;;;;;;10525416;28;20267;-79
2022/04/23 01:26:57;;;;;;;5.07;4.43;;;7.60;99.90;;;;;;10510712;28;20250;-78
2022/04/23 01:32:19;;;;;;;10.97;5.23;;;7.60;99.90;;;;;;10511502;28;20399;-79
2022/04/23 01:37:41;;;;;;;7.30;5.17;;;7.60;99.90;;;;;;10513124;28;20234;-79
2022/04/23 01:43:02;;;;;;;10.97;6.13;;;7.60;99.90;;;;;;10524604;28;20208;-78
2022/04/23 01:48:23;;;;;;;10.80;6.07;;;7.50;99.90;;;;;;10523724;28;20233;-79
2022/04/23 01:53:44;;;;;;;8.93;5.10;;;7.40;99.90;;;;;;10510309;28;20197;-78
2022/04/23 01:59:06;;;;;;;12.93;5.87;;;;;;;;;;10524074;28;20205;-78
2022/04/23 02:04:27;;;;;;;8.10;5.37;;;7.10;99.90;;;;;;10523828;28;20534;-79
2022/04/23 02:09:48;;;;;;;9.97;5.13;;;7.20;99.90;;;;;;10508574;28;20234;-79
2022/04/23 02:15:12;;;;;;;7.30;4.87;;;7.20;99.90;;;;;;10482830;28;20202;-79
2022/04/23 02:20:33;;;;;;;8.30;5.00;;;7.10;99.90;;;;;;10494722;28;20222;-79
2022/04/23 02:25:54;;;;;;;7.33;4.47;;;7.00;99.90;;;;;;10481525;28;20463;-79
2022/04/23 02:31:16;;;;;;;8.87;4.70;;;7.00;99.90;;;;;;10497529;28;20222;-79
2022/04/23 02:36:37;;;;;;;6.90;4.63;;;7.10;99.90;;;;;;10536791;28;20183;-80
2022/04/23 02:41:59;;;;;;;8.63;5.70;;;7.10;99.90;;;;;;10528161;28;20273;-79
2022/04/23 02:47:21;;;;;;;9.40;6.10;;;7.10;99.90;;;;;;10522110;28;20197;-79
2022/04/23 02:52:43;;;;;;;11.30;6.73;;;7.10;99.90;;;;;;10507931;28;20454;-79
2022/04/23 02:58:11;;;;;;;12.07;6.30;;;7.10;99.90;;;;;;10522549;28;20270;-79
2022/04/23 03:03:33;;;;;;;10.37;5.40;;;7.20;99.90;;;;;;10507548;28;20223;-79
2022/04/23 03:08:55;;;;;;;8.17;5.37;;;7.10;99.90;;;;;;10482366;28;20257;-79
2022/04/23 03:14:16;;;;;;;12.03;4.97;;;7.00;99.90;;;;;;10551265;28;20189;-79
2022/04/23 03:19:37;;;;;;;11.83;6.53;;;6.90;99.90;;;;;;10530822;28;20195;-79
2022/04/23 03:24:59;;;;;;;14.70;7.23;;;6.80;99.90;;;;;;10520156;28;20245;-78
2022/04/23 03:30:20;;;;;;;10.03;7.00;;;;;;;;;;10520002;28;20544;-79
2022/04/23 03:35:42;;;;;;;10.50;6.87;;;6.60;99.90;;;;;;10491745;28;20212;-79
2022/04/23 03:41:04;;;;;;;11.40;6.30;;;6.60;99.90;;;;;;10519570;28;20521;-79
2022/04/23 03:46:26;;;;;;;12.13;6.50;;;6.70;99.90;;;;;;10519623;28;20202;-79
2022/04/23 03:51:47;;;;;;;8.20;4.97;;;6.70;99.90;;;;;;10505306;28;20224;-79
2022/04/23 03:57:10;;;;;;;6.60;4.37;;;6.70;99.90;;;;;;10519332;28;20268;-79
2022/04/23 04:02:32;;;;;;;7.90;4.97;;;6.70;99.90;;;;;;10518960;28;20188;-79
2022/04/23 04:07:54;;;;;;;9.10;4.47;;;6.80;99.90;;;;;;10518947;28;20206;-79
2022/04/23 04:13:15;;;;;;;9.40;4.53;;;6.70;99.90;;;;;;10531731;28;20217;-79
2022/04/23 04:18:36;;;;;;;6.67;4.40;;;6.80;99.90;;;;;;10530355;28;20208;-79
2022/04/23 04:23:58;;;;;;;7.07;4.37;;;6.90;99.90;;;;;;10518538;28;20224;-79
2022/04/23 04:29:20;;;;;;;6.47;4.10;;;6.90;99.90;;;;;;10518433;28;20219;-79
2022/04/23 04:34:42;;;;;;;9.07;4.97;;;6.90;99.90;;;;;;10547250;28;20185;-79
2022/04/23 04:40:05;;;;;;;7.53;4.30;;;6.90;99.90;;;;;;10531533;28;20280;-78
2022/04/23 04:45:26;;;;;;;7.97;4.90;;;7.00;99.90;;;;;;10561617;28;20269;-79
2022/04/23 04:50:47;;;;;;;7.97;5.27;;;7.10;99.90;;;;;;10545621;28;20503;-79
2022/04/23 04:56:09;;;;;;;9.77;6.13;;;7.20;99.90;;;;;;10560600;28;20262;-78
2022/04/23 05:01:30;;;;;;;9.70;5.80;;;7.30;99.90;;;;;;10543150;28;20245;-79
2022/04/23 05:06:52;;;;;;;7.13;4.73;;;7.30;99.90;;;;;;10489745;28;20221;-79
2022/04/23 05:12:13;;;;;;;8.13;5.50;;;7.40;99.90;;;;;;10536724;28;20224;-78
2022/04/23 05:17:38;;;;;;;7.50;4.50;;;7.50;99.90;;;;;;10526377;28;20271;-78
2022/04/23 05:23:00;;;;;;;7.77;4.53;;;7.70;99.90;;;;;;10517353;28;20245;-79
2022/04/23 05:28:21;;;;;;;6.57;4.57;;;7.80;99.90;;;;;;10517156;28;20203;-78
2022/04/23 05:33:42;;;;;;;7.60;5.10;;;7.90;99.90;;;;;;10517080;28;20215;-79
2022/04/23 05:39:04;;;;;;;6.93;4.83;;;8.10;99.90;;;;;;10533942;28;20199;-79
2022/04/23 05:44:25;;;;;;;12.03;6.20;;;8.40;99.90;;;;;;10535599;28;20201;-79
2022/04/23 05:49:46;;;;;;;9.67;5.80;;;8.50;99.90;;;;;;10525654;28;20225;-79
2022/04/23 05:55:12;;;;;;;47.07;26.17;;;8.70;99.90;;;;;;10510755;28;20279;-78
2022/04/23 06:00:34;;;;;;;36.43;22.23;;;9.00;99.90;;;;;;10495391;28;20234;-79
2022/04/23 06:05:55;;;;;;;20.57;13.23;;;9.80;99.90;;;;;;10523585;28;20375;-79
2022/04/23 06:11:16;;;;;;;44.50;21.63;;;10.40;99.90;;;;;;10532956;28;20215;-78
2022/04/23 06:16:38;;;;;;;13.20;8.90;;;11.10;99.90;;;;;;10525834;28;20275;-79
2022/04/23 06:21:59;;;;;;;5.70;4.00;;;11.70;99.90;;;;;;10522751;28;20201;-79
2022/04/23 06:27:21;;;;;;;13.82;6.93;;;12.80;99.90;;;;;;10508660;28;20234;-79
2022/04/23 06:32:42;;;;;;;6.45;4.55;;;13.90;96.10;;;;;;10522469;28;20229;-80
2022/04/23 06:38:03;;;;;;;8.02;4.45;;;14.60;93.30;;;;;;10538962;28;20224;-79
2022/04/23 06:43:25;;;;;;;4.65;3.75;;;15.40;87.00;;;;;;10538764;28;20284;-79
2022/04/23 06:48:46;;;;;;;7.05;4.35;;;15.90;72.90;;;;;;10507842;28;20267;-79
2022/04/23 06:54:07;;;;;;;7.22;3.95;;;16.50;67.60;;;;;;10522148;28;20340;-80
2022/04/23 06:59:29;;;;;;;6.07;4.13;;;17.20;54.30;;;;;;10521690;28;20271;-79
2022/04/23 07:04:50;;;;;;;4.68;3.47;;;17.70;45.30;;;;;;10537740;28;20289;-80
2022/04/23 07:10:11;;;;;;;9.07;4.03;;;18.30;38.00;;;;;;10523122;28;20233;-80
2022/04/23 07:15:33;;;;;;;6.18;4.13;;;18.70;32.50;;;;;;10511045;28;20210;-79
2022/04/23 07:20:54;;;;;;;8.35;5.20;;;19.00;29.10;;;;;;10493925;28;20199;-79
2022/04/23 07:26:16;;;;;;;4.97;3.42;;;19.10;26.10;;;;;;10496411;28;20230;-79
2022/04/23 07:31:38;;;;;;;11.85;3.72;;;19.50;25.20;;;;;;10467590;28;20298;-79
2022/04/23 07:42:40;;;;;;;4.03;3.13;;;19.90;21.90;;;;;;10502226;28;20193;-79
2022/04/23 07:48:02;;;;;;;4.38;3.35;;;19.80;20.10;;;;;;10561454;28;20266;-79
2022/04/23 07:53:24;;;;;;;7.57;3.90;;;19.80;19.10;;;;;;10562454;28;20301;-80
2022/04/23 07:58:45;;;;;;;6.75;4.22;;;20.10;18.50;;;;;;10562237;28;20229;-80
2022/04/23 08:04:07;;;;;;;5.07;4.32;;;20.30;17.80;;;;;;10546331;28;20221;-80
2022/04/23 08:09:28;;;;;;;8.60;3.30;;;20.50;16.90;;;;;;10531490;28;20267;-80
2022/04/23 08:14:50;;;;;;;8.00;2.85;;;20.50;16.80;;;;;;10530848;28;20219;-78
2022/04/23 08:20:11;;;;;;;5.43;3.20;;;20.90;16.00;;;;;;10503700;28;20203;-80
2022/04/23 08:25:34;;;;;;;7.20;3.25;;;21.30;15.50;;;;;;10504443;28;20226;-80
2022/04/23 08:30:55;;;;;;;3.97;3.25;;;21.70;14.80;;;;;;10487392;28;20257;-80
2022/04/23 08:36:17;;;;;;;3.50;3.20;;;21.50;14.80;;;;;;10519172;28;20191;-80
2022/04/23 08:41:40;;;;;;;6.07;3.38;;;21.60;14.50;;;;;;10503613;28;20478;-78
2022/04/23 08:47:02;;;;;;;6.93;3.55;;;21.70;14.20;;;;;;10518615;28;20266;-79
2022/04/23 08:52:34;;;;;;;4.20;3.25;;;22.10;14.00;;;;;;10503598;28;20230;-79
2022/04/23 08:57:55;;;;;;;4.68;2.83;;;22.60;13.00;;;;;;10517845;28;20194;-79
2022/04/23 09:03:17;;;;;;;3.28;2.97;;;;;;;;;;10517541;28;20345;-79
2022/04/23 09:09:12;;;;;;;3.40;3.10;;;23.90;11.90;;;;;;10489203;28;20203;-81
2022/04/23 09:14:33;;;;;;;6.32;3.15;;;24.10;10.60;;;;;;10511116;28;20199;-79
2022/04/23 09:25:40;;;;;;;4.15;3.08;;;23.90;9.70;;;;;;10513028;28;20283;-79
2022/04/23 09:31:12;;;;;;;3.17;2.67;;;23.60;9.20;;;;;;10524999;28;20424;-79
2022/04/23 09:36:49;;;;;;;11.80;3.97;;;23.60;9.00;;;;;;10524567;28;20202;-79
2022/04/23 09:42:18;;;;;;;9.95;4.78;;;22.90;9.90;;;;;;10525442;28;20270;-79
2022/04/23 09:47:42;;;;;;;5.20;3.28;;;22.60;11.10;;;;;;10525410;28;20257;-79
2022/04/23 09:53:14;;;;;;;4.15;3.33;;;23.10;10.70;;;;;;10524217;28;20242;-78
2022/04/23 09:58:35;;;;;;;10.95;3.75;;;23.30;9.90;;;;;;10524131;28;20201;-79
2022/04/23 10:03:57;;;;;;;5.60;3.20;;;21.90;10.60;;;;;;10509712;28;20336;-78
2022/04/23 10:09:21;;;;;;;8.63;3.60;;;20.40;13.80;;;;;;10524688;28;20277;-78
2022/04/23 10:14:49;;;;;;;4.97;3.38;;;19.10;16.00;;;;;;10533075;28;20191;-79
2022/04/23 10:20:12;;;;;;;8.10;5.60;;;18.60;17.00;;;;;;10494488;28;20200;-79
2022/04/23 10:26:09;;;;;;;5.45;3.58;;;19.00;16.90;;;;;;10482580;28;20243;-79
2022/04/23 10:31:30;;;;;;;5.60;3.78;;;18.90;17.30;;;;;;10481469;28;20262;-79
2022/04/23 10:37:14;;;;;;;9.77;4.25;;;18.70;17.50;;;;;;10481141;28;20199;-79
2022/04/23 10:42:35;;;;;;;8.70;3.80;;;18.70;17.40;;;;;;10494811;28;20379;-79
2022/04/23 10:48:23;;;;;;;6.95;3.70;;;18.70;17.60;;;;;;10508145;28;20199;-79
2022/04/23 10:53:46;;;;;;;5.97;3.03;;;18.50;18.00;;;;;;10521606;28;20226;-79
2022/04/23 10:59:39;;;;;;;7.15;3.65;;;18.60;17.80;;;;;;10522438;28;20502;-79
2022/04/23 11:16:54;;;;;;;4.65;2.78;;;20.70;14.40;;;;;;10499112;28;20236;-79
2022/04/23 11:22:16;;;;;;;9.00;3.58;;;19.90;14.30;;;;;;10524528;28;20203;-78
2022/04/23 11:27:38;;;;;;;7.63;3.55;;;19.10;15.00;;;;;;10485052;28;20195;-78
2022/04/23 11:33:10;;;;;;;5.00;2.80;;;18.90;15.90;;;;;;10526350;28;20222;-77
2022/04/23 11:38:32;;;;;;;6.82;4.57;;;19.40;15.50;;;;;;10523969;28;20412;-79
2022/04/23 11:43:53;;;;;;;31.33;13.90;;;19.00;14.80;;;;;;10527175;28;20199;-78
2022/04/23 11:49:31;;;;;;;26.17;13.80;;;18.60;14.80;;;;;;10513811;28;20195;-78
2022/04/23 11:54:53;;;;;;;16.45;8.25;;;18.40;15.50;;;;;;10523604;28;20223;-79
2022/04/23 12:00:19;;;;;;;24.58;11.85;;;18.40;16.20;;;;;;10505482;28;20203;-79
2022/04/23 12:05:40;;;;;;;14.20;6.78;;;18.20;15.90;;;;;;10505485;28;20241;-79
2022/04/23 12:11:03;;;;;;;11.65;4.78;;;19.00;15.30;;;;;;10538294;28;20215;-80
2022/04/23 12:16:38;;;;;;;9.07;3.78;;;18.80;15.70;;;;;;10504461;28;20195;-79
2022/04/23 12:21:59;;;;;;;8.15;5.65;;;18.40;15.70;;;;;;10522442;28;20370;-79
2022/04/23 12:27:23;;;;;;;8.35;4.60;;;18.00;15.90;;;;;;10504328;28;20269;-79
2022/04/23 12:44:19;;;;;;;6.55;3.20;;;18.90;14.60;;;;;;10502987;28;20195;-79
2022/04/23 12:49:47;;;;;;;4.97;3.28;;;18.60;15.30;;;;;;10490071;28;20234;-79
2022/04/23 12:55:17;;;;;;;4.95;3.25;;;18.20;16.60;;;;;;10524451;28;20213;-79
2022/04/23 13:00:41;;;;;;;7.78;3.67;;;17.80;16.70;;;;;;10526487;28;20270;-80
2022/04/23 13:06:04;;;;;;;4.93;3.10;;;17.50;17.60;;;;;;10512049;28;20194;-79
2022/04/23 13:11:30;;;;;;;8.40;3.35;;;17.70;18.10;;;;;;10528469;28;20403;-79
2022/04/23 13:16:51;;;;;;;3.78;3.25;;;18.20;17.00;;;;;;10526471;28;20203;-79
2022/04/23 13:22:16;;;;;;;7.38;5.00;;;18.70;16.60;;;;;;10515788;28;20278;-79
2022/04/23 13:27:37;;;;;;;13.20;8.00;;;18.70;16.00;;;;;;10525357;28;20195;-79
2022/04/23 13:32:59;;;;;;;5.10;3.55;;;18.90;15.90;;;;;;10524922;28;20227;-79
2022/04/23 13:38:20;;;;;;;9.32;4.25;;;18.80;16.50;;;;;;10524513;28;20190;-79
2022/04/23 13:43:43;;;;;;;21.50;13.18;;;18.80;16.30;;;;;;10524777;28;20474;-79
2022/04/23 13:49:04;;;;;;;11.63;6.55;;;18.60;14.90;;;;;;10525756;28;20191;-79
2022/04/23 13:54:25;;;;;;;6.43;3.83;;;18.30;16.70;;;;;;10524373;28;20268;-79
2022/04/23 13:59:46;;;;;;;5.85;3.78;;;18.20;17.70;;;;;;10524322;28;20191;-79
2022/04/23 14:10:47;;;;;;;7.22;5.32;;;17.80;17.50;;;;;;10523940;28;20408;-79
2022/04/23 14:16:13;;;;;;;6.68;3.60;;;17.40;19.10;;;;;;10526776;28;20196;-79
2022/04/23 14:21:34;;;;;;;5.18;2.75;;;17.10;20.30;;;;;;10495002;28;20198;-79
2022/04/23 14:26:55;;;;;;;19.98;7.55;;;16.80;20.10;;;;;;10524091;28;20225;-80
2022/04/23 14:32:17;;;;;;;4.57;3.03;;;16.70;20.10;;;;;;10523251;28;20224;-79
2022/04/23 14:37:38;;;;;;;14.32;6.82;;;17.00;19.60;;;;;;10523790;28;20199;-81
2022/04/23 14:43:00;;;;;;;16.13;4.57;;;17.00;18.80;;;;;;10548345;28;20412;-79
2022/04/23 14:48:22;;;;;;;19.17;15.20;;;16.70;18.60;;;;;;10563000;28;20217;-79
2022/04/23 14:53:44;;;;;;;18.63;11.73;;;16.50;18.60;;;;;;10522027;28;20244;-79
2022/04/23 14:59:07;;;;;;;7.10;3.58;;;16.50;18.60;;;;;;10508084;28;20255;-79
2022/04/23 15:04:28;;;;;;;8.68;4.07;;;16.60;19.10;;;;;;10524423;28;20528;-79
2022/04/23 15:09:50;;;;;;;20.75;13.90;;;16.60;18.50;;;;;;10507535;28;20210;-79
2022/04/23 15:15:13;;;;;;;5.22;3.65;;;16.50;18.10;;;;;;10563822;28;20217;-80
2022/04/23 15:20:35;;;;;;;9.30;4.72;;;16.40;18.00;;;;;;10514098;28;20509;-80
2022/04/23 15:25:56;;;;;;;6.43;3.72;;;16.20;17.80;;;;;;10520482;28;20232;-80
2022/04/23 15:31:17;;;;;;;7.63;4.53;;;16.00;19.60;;;;;;10520953;28;20527;-79
2022/04/23 15:36:38;;;;;;;5.38;4.10;;;15.90;20.60;;;;;;10520473;28;20543;-79
2022/04/23 15:42:00;;;;;;;13.98;9.65;;;15.80;20.70;;;;;;10521514;28;20194;-79
2022/04/23 15:47:21;;;;;;;14.75;8.60;;;15.70;20.70;;;;;;10506014;28;20387;-79
2022/04/23 15:52:43;;;;;;;17.73;9.05;;;15.70;21.50;;;;;;10492590;28;20478;-79
2022/04/23 15:58:04;;;;;;;6.38;3.83;;;15.80;22.40;;;;;;10479318;28;20186;-79
2022/04/23 16:03:25;;;;;;;16.70;7.90;;;15.60;23.00;;;;;;10480834;28;20197;-79
2022/04/23 16:08:47;;;;;;;16.33;7.88;;;15.40;22.10;;;;;;10478888;28;20426;-79
2022/04/23 16:14:12;;;;;;;9.65;5.55;;;15.20;22.80;;;;;;10534005;28;20217;-79
2022/04/23 16:19:53;;;;;;;10.07;6.18;;;15.20;22.80;;;;;;10511857;28;20218;-79
2022/04/23 16:25:16;;;;;;;9.38;5.88;;;15.10;23.40;;;;;;10504451;28;20426;-79
2022/04/23 16:30:40;;;;;;;4.05;2.80;;;15.10;24.10;;;;;;10517876;28;20225;-79
2022/04/23 16:47:23;;;;;;;5.18;2.70;;;14.70;25.50;;;;;;10518259;28;20200;-79
2022/04/23 16:52:44;;;;;;;4.32;2.85;;;14.60;25.80;;;;;;10504039;28;20267;-79
2022/04/23 16:58:05;;;;;;;4.63;2.85;;;14.50;27.10;;;;;;10518807;28;20274;-79
2022/04/23 17:03:26;;;;;;;3.92;2.20;;;14.40;28.00;;;;;;10503760;28;20227;-79
2022/04/23 17:08:47;;;;;;;4.65;2.50;;;14.20;27.70;;;;;;10504070;28;20237;-79
2022/04/23 17:14:08;;;;;;;4.68;2.70;;;14.10;28.70;;;;;;10553704;28;20215;-80
2022/04/23 17:19:30;;;;;;;5.95;2.72;;;13.90;29.30;;;;;;10496994;28;20206;-80
2022/04/23 17:24:51;;;;;;;6.03;3.03;;;13.90;30.90;;;;;;10475983;28;20245;-79
2022/04/23 17:30:12;;;;;;;4.88;3.25;;;13.80;32.90;;;;;;10496695;28;20219;-80
2022/04/23 17:35:34;;;;;;;17.65;12.32;;;13.70;35.50;;;;;;10517600;28;20204;-79
2022/04/23 17:40:55;;;;;;;8.75;6.45;;;13.60;37.80;;;;;;10521465;28;20197;-78
2022/04/23 17:46:17;;;;;;;15.35;7.05;;;13.50;39.30;;;;;;10525602;28;20196;-79
2022/04/23 17:51:39;;;;;;;14.05;7.65;;;13.30;41.50;;;;;;10525327;28;20227;-79
2022/04/23 17:57:00;;;;;;;16.15;6.40;;;13.20;44.00;;;;;;10524409;28;20226;-80
2022/04/23 18:08:03;;;;;;;13.18;7.68;;;12.90;49.00;;;;;;10483428;28;20197;-79
2022/04/23 18:13:24;;;;;;;21.40;11.27;;;12.70;51.70;;;;;;10537365;28;20381;-79
2022/04/23 18:18:46;;;;;;;24.65;13.27;;;12.60;54.60;;;;;;10532719;28;20202;-79
2022/04/23 18:24:08;;;;;;;20.77;11.90;;;12.50;57.30;;;;;;10508920;28;20231;-79
2022/04/23 18:29:30;;;;;;;45.00;23.67;;;12.40;60.30;;;;;;10508605;28;20192;-79
2022/04/23 18:34:52;;;;;;;43.05;22.85;;;12.30;64.10;;;;;;10508840;28;20250;-79
2022/04/23 18:40:16;;;;;;;49.00;22.42;;;12.20;66.30;;;;;;10522565;28;20200;-78
2022/04/23 18:45:38;;;;;;;56.67;24.52;;;12.00;70.30;;;;;;10508789;28;20214;-79
2022/04/23 18:51:03;;;;;;;55.22;23.65;;;11.90;73.00;;;;;;10521573;28;20225;-79
2022/04/23 18:56:25;;;;;;;24.00;12.17;;;11.80;77.00;;;;;;10521737;28;20217;-79
2022/04/23 19:01:45;;;;;;;19.70;10.57;;;11.80;83.70;;;;;;10521594;28;20384;-78
2022/04/23 19:07:07;;;;;;;23.33;14.33;;;11.60;89.00;;;;;;10521506;28;20199;-79
2022/04/23 19:12:28;;;;;;;19.70;11.33;;;11.50;93.10;;;;;;10541783;28;20216;-78
2022/04/23 19:17:49;;;;;;;26.13;12.97;;;11.30;96.80;;;;;;10540770;28;20430;-79
2022/04/23 19:28:50;;;;;;;28.03;12.97;;;11.00;99.90;;;;;;10520567;28;20195;-78
2022/04/23 19:34:12;;;;;;;31.00;11.63;;;10.90;99.90;;;;;;10495681;28;20663;-78
2022/04/23 19:39:33;;;;;;;19.60;11.80;;;10.70;99.90;;;;;;10479837;28;20501;-78
2022/04/23 19:44:54;;;;;;;23.00;13.23;;;10.50;99.90;;;;;;10479736;28;20191;-78
2022/04/23 19:50:16;;;;;;;18.17;10.63;;;;;;;;;;10479456;28;20215;-78
2022/04/23 19:55:39;;;;;;;16.57;10.60;;;10.30;99.90;;;;;;10464058;28;20202;-78
2022/04/23 20:01:00;;;;;;;16.53;9.50;;;10.30;99.90;;;;;;10509601;28;20202;-78
2022/04/23 20:06:23;;;;;;;15.17;8.30;;;;;;;;;;10491242;28;20195;-79
2022/04/23 20:11:45;;;;;;;19.87;9.43;;;10.00;99.90;;;;;;10507169;28;20260;-78
2022/04/23 20:17:09;;;;;;;15.27;7.77;;;10.00;99.90;;;;;;10547471;28;20362;-78
2022/04/23 20:22:30;;;;;;;14.77;9.20;;;10.00;99.90;;;;;;10531794;28;20221;-79
2022/04/23 20:27:51;;;;;;;15.93;8.83;;;10.00;99.90;;;;;;10522919;28;20384;-78
2022/04/23 20:33:13;;;;;;;16.73;7.77;;;9.90;99.90;;;;;;10522761;28;20233;-78
2022/04/23 20:38:36;;;;;;;14.17;8.33;;;9.80;99.90;;;;;;10518472;28;20263;-78
2022/04/23 20:43:57;;;;;;;14.57;7.20;;;9.60;99.90;;;;;;10535209;28;20225;-79
2022/04/23 20:49:20;;;;;;;16.07;8.30;;;9.60;99.90;;;;;;10518448;28;20189;-79
2022/04/23 20:54:42;;;;;;;15.67;8.43;;;9.50;99.90;;;;;;10503775;28;20225;-78
2022/04/23 21:00:06;;;;;;;13.37;7.27;;;;;;;;;;10518026;28;20196;-78
2022/04/23 21:05:27;;;;;;;13.27;7.67;;;9.00;99.90;;;;;;10503864;28;20234;-78
2022/04/23 21:10:49;;;;;;;15.43;7.33;;;8.80;99.90;;;;;;10509909;28;20208;-78
2022/04/23 21:16:10;;;;;;;15.57;7.33;;;8.80;99.90;;;;;;10542659;28;20508;-78
2022/04/23 21:21:31;;;;;;;16.67;7.60;;;8.70;99.90;;;;;;10509006;28;20256;-79
2022/04/23 21:26:53;;;;;;;13.30;7.00;;;8.60;99.90;;;;;;10526563;28;20244;-78
2022/04/23 21:32:16;;;;;;;13.43;7.50;;;8.50;99.90;;;;;;10470005;28;20232;-79
2022/04/23 21:37:38;;;;;;;17.37;9.10;;;8.30;99.90;;;;;;10483619;28;20270;-78
2022/04/23 21:48:39;;;;;;;16.80;8.47;;;8.10;99.90;;;;;;10482828;28;20204;-78
2022/04/23 21:54:00;;;;;;;14.47;7.97;;;8.00;99.90;;;;;;10482977;28;20234;-78
2022/04/23 21:59:21;;;;;;;14.97;7.10;;;7.90;99.90;;;;;;10519042;28;20184;-78
2022/04/23 22:04:43;;;;;;;16.53;8.43;;;7.90;99.90;;;;;;10511136;28;20196;-79
2022/04/23 22:10:04;;;;;;;14.47;7.73;;;7.90;99.90;;;;;;10530044;28;20233;-78
2022/04/23 22:15:26;;;;;;;13.00;8.10;;;7.80;99.90;;;;;;10568940;28;20196;-79
2022/04/23 22:20:47;;;;;;;17.93;8.83;;;7.60;99.90;;;;;;10487932;28;20206;-78
2022/04/23 22:26:09;;;;;;;15.17;9.03;;;7.60;99.90;;;;;;10481090;28;20221;-78
2022/04/23 22:31:31;;;;;;;13.23;8.53;;;7.60;99.90;;;;;;10491128;28;20421;-78
2022/04/23 22:36:52;;;;;;;14.97;9.37;;;7.50;99.90;;;;;;10509815;28;20210;-79
2022/04/23 22:42:14;;;;;;;15.77;10.33;;;7.30;99.90;;;;;;10508655;28;20491;-79
2022/04/23 22:47:35;;;;;;;22.43;12.30;;;7.30;99.90;;;;;;10522309;28;20206;-78
2022/04/23 22:52:56;;;;;;;19.17;11.77;;;7.10;99.90;;;;;;10523134;28;20225;-78
2022/04/23 22:58:18;;;;;;;22.80;13.43;;;6.90;99.90;;;;;;10522875;28;20209;-79
2022/04/23 23:03:42;;;;;;;19.40;12.30;;;6.90;99.90;;;;;;10508508;28;20217;-78
2022/04/23 23:09:03;;;;;;;21.17;13.07;;;6.80;99.90;;;;;;10522854;28;20239;-78
2022/04/23 23:14:24;;;;;;;20.17;13.13;;;6.80;99.90;;;;;;10558822;28;20215;-79
2022/04/23 23:19:45;;;;;;;19.43;12.80;;;6.90;99.90;;;;;;10549134;28;20283;-78
2022/04/23 23:25:07;;;;;;;19.00;11.60;;;6.80;99.90;;;;;;10562554;28;20285;-78
2022/04/23 23:30:29;;;;;;;23.07;13.23;;;6.80;99.90;;;;;;10515849;28;20193;-78
2022/04/23 23:35:50;;;;;;;19.47;11.80;;;6.70;99.90;;;;;;10520702;28;20235;-78
2022/04/23 23:41:11;;;;;;;25.03;14.60;;;6.80;99.90;;;;;;10521165;28;20215;-78
2022/04/23 23:46:32;;;;;;;22.63;15.87;;;6.90;99.90;;;;;;10521009;28;20189;-78
2022/04/23 23:51:55;;;;;;;26.67;16.90;;;6.80;99.90;;;;;;10505493;28;20690;-79
2022/04/23 23:57:16;;;;;;;18.23;12.30;;;6.90;99.90;;;;;;10519228;28;20277;-78
